ADDS METAR Data INFO
IDs: Format: Raw Decoded Include TAF

Data at: 1852 UTC 16 Dec 2017

KFCH 161835Z AUTO 33010KT 10SM CLR 10/03 A2988 RMK A01
KFCH 161815Z AUTO 34010KT 10SM CLR 10/03 A2989 RMK A01
KFCH 161755Z AUTO 34006G12KT 9SM CLR 10/04 A2988 RMK A01
KFCH 161735Z AUTO 32007G14KT 10SM CLR 09/04 A2989 RMK A01
KFCH 161715Z AUTO 32007KT 9SM CLR 09/04 A2988 RMK A01
KFCH 161655Z AUTO 36005KT 6SM HZ 08/05 A2987 RMK A01
KFCH 161635Z AUTO 00000KT 4SM HZ CLR 07/05 A2987 RMK A01
KFCH 161615Z AUTO 00000KT 2 1/2SM BR CLR 06/04 A2987 RMK A01
KFCH 161555Z AUTO 00000KT 2SM BR FEW120 05/04 A2986 RMK A01
KFCH 161535Z AUTO 00000KT 2SM BR CLR 04/03 A2986 RMK A01
KFCH 161515Z AUTO 00000KT 2SM BR CLR 04/03 A2986 RMK A01
KFCH 161455Z AUTO 00000KT 3SM BR CLR 04/04 A2986 RMK A01
KFCH 161435Z AUTO 00000KT 2 1/2SM BR CLR 04/04 A2986 RMK A01
KFCH 161415Z AUTO 00000KT 3SM BR CLR 05/04 A2986 RMK A01
KFCH 161355Z AUTO 00000KT 3SM BR CLR 05/04 A2987 RMK A01
KFCH 161335Z AUTO 00000KT 3SM BR CLR 06/05 A2986 RMK A01
KFCH 161315Z AUTO 00000KT 3SM BR CLR 06/05 A2986 RMK A01
KFCH 161255Z AUTO 27004KT 3SM BR CLR 06/05 A2985 RMK A01
KFCH 161235Z AUTO 00000KT 3SM BR CLR 06/05 A2986 RMK A01
KFCH 161215Z AUTO 00000KT 3SM BR FEW110 06/05 A2986 RMK A01
KFCH 161155Z AUTO 00000KT 3SM BR CLR 07/05 A2987 RMK A01
KFCH 161135Z AUTO 25003KT 3SM BR CLR 07/05 A2988 RMK A01
KFCH 161115Z AUTO 30003KT 3SM HZ CLR 07/05 A2989 RMK A01
KFCH 161055Z AUTO 00000KT 3SM HZ CLR 07/05 A2990 RMK A01
KFCH 161035Z AUTO 30004KT 3SM HZ CLR 07/05 A2991 RMK A01
KFCH 161015Z AUTO 30004KT 4SM HZ CLR 08/05 A2992 RMK A01
KFCH 160955Z AUTO 35004KT 3SM HZ CLR 08/05 A2992 RMK A01
KFCH 160935Z AUTO 30006KT 3SM HZ CLR 08/05 A2992 RMK A01
KFCH 160915Z AUTO 27006KT 3SM HZ FEW003 08/05 A2993 RMK A01
KFCH 160855Z AUTO 22005KT 3SM HZ FEW003 09/05 A2992 RMK A01
KFCH 160835Z AUTO 00000KT 3SM HZ CLR 09/05 A2993 RMK A01
KFCH 160815Z AUTO 00000KT 3SM HZ CLR 09/05 A2994 RMK A01
KFCH 160755Z AUTO 27004KT 3SM HZ FEW050 FEW065 FEW075 09/05 A2995 RMK A01
KFCH 160735Z AUTO 00000KT 3SM HZ FEW050 SCT075 BKN110 09/05 A2996 RMK A01
KFCH 160715Z AUTO 27004KT 3SM HZ BKN120 10/05 A2998 RMK A01
KFCH 160655Z AUTO 31004KT 4SM HZ FEW120 10/05 A2998 RMK A01
KFCH 160635Z AUTO 31006KT 4SM HZ CLR 10/05 A2999 RMK A01
KFCH 160615Z AUTO 32006KT 3SM HZ CLR 10/05 A3000 RMK A01
KFCH 160555Z AUTO 31006KT 3SM HZ CLR 10/04 A3000 RMK A01
KFCH 160535Z AUTO 00000KT 3SM HZ CLR 09/04 A2999 RMK A01
KFCH 160515Z AUTO 00000KT 3SM HZ CLR 10/04 A2999 RMK A01
KFCH 160455Z AUTO 00000KT 3SM HZ CLR 10/04 A2999 RMK A01
KFCH 160435Z AUTO 30004KT 3SM HZ CLR 10/04 A3001 RMK A01
KFCH 160415Z AUTO 30005KT 3SM HZ 09/04 A3001 RMK A01
KFCH 160335Z AUTO 00000KT 4SM HZ CLR 11/04 A3001 RMK A01
KFCH 160315Z AUTO 32003KT 4SM HZ CLR 11/04 A3002 RMK A01
KFCH 160255Z AUTO 31004KT 4SM HZ FEW018 11/03 A3003 RMK A01
KFCH 160235Z AUTO 28004KT 4SM HZ FEW018 11/03 A3004 RMK A01
KFCH 160215Z AUTO 00000KT 5SM HZ CLR 12/03 A3002 RMK A01
KFCH 160155Z AUTO 00000KT 5SM HZ CLR 11/03 A3003 RMK A01
KFCH 160135Z AUTO 29003KT 4SM HZ CLR 12/03 A3003 RMK A01
KFCH 160115Z AUTO 30003KT 5SM HZ CLR 13/04 A3003 RMK A01
KFCH 160055Z AUTO 00000KT 3SM HZ 14/03 A3003 RMK A01
KFCH 160035Z AUTO 3SM BR A3003 RMK A01
KFCH 160015Z AUTO 25003KT 3SM HZ CLR 15/03 A3004 RMK A01
KFCH 152355Z AUTO 00000KT 3SM HZ CLR 16/03 A3004 RMK A01
KFCH 152335Z AUTO 30004KT 3SM HZ CLR 16/03 A3005 RMK A01
KFCH 152315Z AUTO 00000KT 3SM HZ CLR 16/03 A3005 RMK A01
KFCH 152255Z AUTO 32004KT 3SM HZ CLR 16/03 A3006 RMK A01
KFCH 152235Z AUTO 30003KT 4SM HZ CLR 17/03 A3007 RMK A01
KFCH 152215Z AUTO 00000KT 3SM HZ CLR 16/03 A3007 RMK A01
KFCH 152155Z AUTO 00000KT 3SM HZ CLR 16/03 A3008 RMK A01
KFCH 152135Z AUTO 36003KT 3SM HZ CLR 15/03 A3009 RMK A01
KFCH 152115Z AUTO 30006KT 3SM HZ CLR 15/03 A3011 RMK A01
KFCH 152055Z AUTO 00000KT 3SM HZ CLR 15/03 A3012 RMK A01
KFCH 152035Z AUTO 00000KT 3SM HZ CLR 15/03 A3013 RMK A01
KFCH 152015Z AUTO 29003KT 3SM HZ CLR 14/03 A3014 RMK A01
KFCH 151955Z AUTO 29004KT 3SM HZ CLR 14/03 A3015 RMK A01
KFCH 151935Z AUTO 28005KT 4SM HZ CLR 13/03 A3017 RMK A01
KFCH 151915Z AUTO 00000KT 3SM HZ CLR 12/04 A3017 RMK A01
KFCH 151855Z AUTO 25003KT 3SM HZ CLR 11/04 A3018 RMK A01
KFCH 151835Z AUTO 00000KT 3SM HZ 11/04 A3019 RMK A01
KFCH 151815Z AUTO 00000KT 10/03 A3019 RMK A01
KFCH 151755Z AUTO 00000KT 3SM HZ CLR 09/03 A3020 RMK A01
KFCH 151735Z AUTO 00000KT 3SM HZ 08/03 A3020 RMK A01
KFCH 151715Z AUTO 00000KT 2 1/2SM HZ 07/03 A3020 RMK A01
KFCH 151655Z AUTO 00000KT 2SM HZ CLR 06/02 A3020 RMK A01
KFCH 151635Z AUTO 00000KT 2SM BR CLR 04/02 A3021 RMK A01
KFCH 151615Z AUTO 00000KT 2SM BR CLR 03/01 A3020 RMK A01
KFCH 151555Z AUTO 00000KT 1 3/4SM BR 02/01 A3020 RMK A01
KFCH 151535Z AUTO 2SM BR A3020 RMK A01
KFCH 151515Z AUTO 00000KT 1 3/4SM BR SCT065 02/01 A3020 RMK A01
KFCH 151455Z AUTO 00000KT 2 1/2SM BR BKN065 02/01 A3020 RMK A01
KFCH 151435Z AUTO 00000KT 2 1/2SM BR OVC060 02/01 A3020 RMK A01
KFCH 151415Z AUTO 00000KT 2SM BR OVC060 02/01 A3020 RMK A01
KFCH 151355Z AUTO 00000KT 2SM BR OVC060 02/01 A3020 RMK A01
KFCH 151335Z AUTO 00000KT 2 1/2SM BR 02/01 A3019 RMK A01
KFCH 151315Z AUTO 00000KT 02/01 A3019 RMK A01
KFCH 151235Z AUTO A3018 RMK A01
KFCH 151215Z AUTO 00000KT 2 1/2SM BR SCT065 SCT075 03/02 A3018 RMK A01
KFCH 151155Z AUTO 00000KT 2 1/2SM BR CLR 03/02 A3018 RMK A01
KFCH 151135Z AUTO 00000KT 2 1/2SM BR CLR 03/02 A3019 RMK A01
KFCH 151115Z AUTO 00000KT 3SM BR FEW075 03/01 A3019 RMK A01
KFCH 151055Z AUTO 00000KT 3SM BR FEW075 04/02 A3020 RMK A01
KFCH 151035Z AUTO 00000KT 3SM HZ CLR 05/03 A3020 RMK A01
KFCH 151015Z AUTO 00000KT 3SM HZ CLR 05/02 A3020 RMK A01
KFCH 150955Z AUTO 07003KT 3SM HZ CLR 05/02 A3020 RMK A01
KFCH 150935Z AUTO 07003KT 3SM HZ CLR 05/02 A3020 RMK A01
KFCH 150915Z AUTO 04003KT 3SM HZ CLR 05/02 A3021 RMK A01
KFCH 150855Z AUTO 03003KT 3SM HZ CLR 05/03 A3021 RMK A01
KFCH 150835Z AUTO 00000KT 3SM HZ CLR 05/03 A3021 RMK A01
KFCH 150815Z AUTO 00000KT 3SM HZ CLR 06/03 A3021 RMK A01
KFCH 150755Z AUTO 05003KT 3SM HZ CLR 07/03 A3021 RMK A01
KFCH 150735Z AUTO 00000KT 3SM HZ CLR 07/03 A3021 RMK A01
KFCH 150715Z AUTO 00000KT 3SM HZ CLR 07/03 A3021 RMK A01
KFCH 150655Z AUTO 10004KT 3SM HZ CLR 08/03 A3020 RMK A01